Time;durP1;ratioP1;P1;durP2;ratioP2;P2;SDS_P1;SDS_P2;PMS_P1;PMS_P2;Temp;Humidity;BMP_temperature;BMP_pressure;BME280_temperature;BME280_humidity;BME280_pressure;Samples;Min_cycle;Max_cycle;Signal;HPM_P1;HPM_P2
2022/05/26 00:00:36;;;;;;;43.38;9.23;;;14.00;99.90;;;;;;5105009;28;20113;-71
2022/05/26 00:03:03;;;;;;;39.40;9.07;;;13.90;99.90;;;;;;5083853;28;20039;-72
2022/05/26 00:05:28;;;;;;;42.00;9.18;;;13.90;99.90;;;;;;5102452;28;20126;-71
2022/05/26 00:07:54;;;;;;;40.40;8.32;;;13.90;99.90;;;;;;5085691;28;20047;-70
2022/05/26 00:10:21;;;;;;;37.88;9.05;;;13.80;99.90;;;;;;5103286;28;20042;-71
2022/05/26 00:12:47;;;;;;;38.63;7.43;;;13.80;99.90;;;;;;5103407;28;20043;-72
2022/05/26 00:15:13;;;;;;;52.65;10.60;;;13.80;99.90;;;;;;5081706;28;20057;-71
2022/05/26 00:17:39;;;;;;;46.25;9.55;;;13.70;99.90;;;;;;5105191;28;20193;-72
2022/05/26 00:20:08;;;;;;;43.35;9.18;;;13.70;99.90;;;;;;5102355;28;20554;-72
2022/05/26 00:22:34;;;;;;;43.85;8.55;;;13.70;99.90;;;;;;5085069;28;20039;-72
2022/05/26 00:25:00;;;;;;;46.75;10.15;;;13.70;99.90;;;;;;5101056;27;20047;-72
2022/05/26 00:27:26;;;;;;;45.67;7.90;;;13.70;99.90;;;;;;5103539;28;20047;-73
2022/05/26 00:29:53;;;;;;;38.20;7.85;;;13.70;99.90;;;;;;5104137;28;20051;-73
2022/05/26 00:32:20;;;;;;;46.75;9.15;;;13.60;99.90;;;;;;5104131;28;20039;-71
2022/05/26 00:34:46;;;;;;;42.70;8.18;;;13.60;99.90;;;;;;5087718;28;20394;-70
2022/05/26 00:37:12;;;;;;;41.63;9.48;;;13.60;99.90;;;;;;5099425;28;20063;-72
2022/05/26 00:39:39;;;;;;;42.92;8.30;;;13.60;99.90;;;;;;5082015;28;20502;-71
2022/05/26 00:42:07;;;;;;;41.90;7.53;;;13.60;99.90;;;;;;5083900;28;20063;-70
2022/05/26 00:44:34;;;;;;;31.77;7.85;;;13.70;99.90;;;;;;5103571;28;20067;-71
2022/05/26 00:47:23;;;;;;;33.58;7.60;;;13.70;99.90;;;;;;5083747;28;20189;-71
2022/05/26 00:49:54;;;;;;;36.88;8.13;;;13.70;99.90;;;;;;5105070;28;20052;-71
2022/05/26 00:52:31;;;;;;;43.88;8.55;;;13.70;99.90;;;;;;5101793;28;20114;-72
2022/05/26 00:55:01;;;;;;;41.38;8.35;;;13.70;99.90;;;;;;5101654;28;20082;-70
2022/05/26 00:57:35;;;;;;;43.65;9.07;;;13.70;99.90;;;;;;5104211;28;20048;-71
2022/05/26 01:00:06;;;;;;;43.42;8.13;;;13.70;99.90;;;;;;5083687;28;20040;-71
2022/05/26 01:02:35;;;;;;;48.35;8.60;;;13.80;99.90;;;;;;5079106;28;20036;-71
2022/05/26 01:05:10;;;;;;;49.10;9.18;;;13.80;99.90;;;;;;5084204;28;20051;-71
2022/05/26 01:07:37;;;;;;;44.85;8.52;;;13.80;99.90;;;;;;5080329;28;20047;-71
2022/05/26 01:10:06;;;;;;;41.05;8.07;;;13.80;99.90;;;;;;5083882;28;20453;-70
2022/05/26 01:12:33;;;;;;;36.28;7.20;;;13.80;99.90;;;;;;5098087;28;20384;-71
2022/05/26 01:15:06;;;;;;;35.47;8.63;;;13.80;99.90;;;;;;5098543;28;20273;-70
2022/05/26 01:17:58;;;;;;;45.78;7.65;;;13.80;99.90;;;;;;5080750;28;20052;-71
2022/05/26 01:20:31;;;;;;;39.50;8.73;;;13.80;99.90;;;;;;5083215;28;20050;-71
2022/05/26 01:23:30;;;;;;;39.30;7.80;;;13.80;99.90;;;;;;5100453;28;20334;-71
2022/05/26 01:26:14;;;;;;;35.80;7.55;;;13.80;99.90;;;;;;5083281;28;20202;-72
2022/05/26 01:29:26;;;;;;;35.25;7.97;;;13.80;99.90;;;;;;5099834;28;20127;-72
2022/05/26 01:32:18;;;;;;;34.55;7.03;;;13.70;99.90;;;;;;5101351;28;20256;-72
2022/05/26 01:34:59;;;;;;;27.60;6.82;;;13.80;99.90;;;;;;5099251;28;20035;-72
2022/05/26 01:37:44;;;;;;;24.83;5.85;;;13.80;99.90;;;;;;5100228;28;20047;-71
2022/05/26 01:40:28;;;;;;;24.92;5.00;;;13.70;99.90;;;;;;5080896;28;20048;-72
2022/05/26 01:43:20;;;;;;;15.40;3.65;;;13.70;99.90;;;;;;5079653;28;20046;-72
2022/05/26 01:45:57;;;;;;;20.85;4.85;;;13.70;99.90;;;;;;5081280;28;20124;-71
2022/05/26 01:48:41;;;;;;;20.88;4.22;;;13.70;99.90;;;;;;5081826;28;20036;-71
2022/05/26 01:51:12;;;;;;;22.70;3.83;;;13.80;99.90;;;;;;5079674;28;20671;-71
2022/05/26 01:53:56;;;;;;;22.80;3.92;;;13.80;99.90;;;;;;5076354;28;20376;-72
2022/05/26 01:56:53;;;;;;;16.80;3.83;;;13.80;99.90;;;;;;5097281;28;20086;-71
2022/05/26 01:59:31;;;;;;;21.90;4.07;;;13.80;99.90;;;;;;5100072;28;20302;-71
2022/05/26 02:02:07;;;;;;;14.93;3.38;;;13.80;99.90;;;;;;5101859;28;20088;-71
2022/05/26 02:05:07;;;;;;;19.67;3.75;;;13.80;99.90;;;;;;5100763;28;20403;-71
2022/05/26 02:07:44;;;;;;;19.83;4.00;;;13.80;99.90;;;;;;5074631;28;20044;-71
2022/05/26 02:10:23;;;;;;;22.00;3.65;;;13.80;99.90;;;;;;5102333;28;20035;-71
2022/05/26 02:12:53;;;;;;;15.48;3.17;;;13.80;99.90;;;;;;5107981;28;20063;-71
2022/05/26 02:15:47;;;;;;;14.70;3.85;;;13.70;99.90;;;;;;5103046;28;20039;-71
2022/05/26 02:18:33;;;;;;;;;;;13.70;99.90;;;;;;5087874;28;20039;-72
2022/05/26 02:21:06;;;;;;;13.70;3.30;;;13.70;99.90;;;;;;5105397;28;19920;-72
2022/05/26 02:23:49;;;;;;;10.93;2.88;;;13.60;99.90;;;;;;5106686;28;20066;-72
2022/05/26 02:26:15;;;;;;;12.02;2.70;;;13.60;99.90;;;;;;5101388;28;20048;-71
2022/05/26 02:31:28;;;;;;;13.90;3.15;;;13.50;99.90;;;;;;5089186;28;20134;-71
2022/05/26 02:33:57;;;;;;;17.38;3.28;;;13.40;99.90;;;;;;5106873;28;20059;-71
2022/05/26 02:36:24;;;;;;;8.73;2.45;;;13.40;99.90;;;;;;5084294;28;20052;-70
2022/05/26 02:38:50;;;;;;;8.38;2.42;;;13.30;99.90;;;;;;5105914;28;20513;-71
2022/05/26 02:41:16;;;;;;;10.63;2.30;;;13.30;99.90;;;;;;5102161;28;20071;-71
2022/05/26 02:43:43;;;;;;;7.93;1.90;;;13.20;99.90;;;;;;5104999;28;20044;-71
2022/05/26 02:46:42;;;;;;;10.77;2.45;;;13.20;99.90;;;;;;5104136;28;20039;-71
2022/05/26 02:49:35;;;;;;;9.20;2.40;;;13.20;99.90;;;;;;5089465;28;20044;-71
2022/05/26 02:52:25;;;;;;;11.73;2.65;;;13.10;99.90;;;;;;5086548;28;20410;-69
2022/05/26 02:55:13;;;;;;;5.38;1.80;;;13.10;99.90;;;;;;5103271;28;20040;-71
2022/05/26 02:58:27;;;;;;;9.02;2.20;;;13.00;99.90;;;;;;5097253;28;20532;-71
2022/05/26 03:01:04;;;;;;;11.82;2.33;;;12.90;99.90;;;;;;5024941;28;20284;-71
2022/05/26 03:03:45;;;;;;;16.13;2.97;;;12.90;99.90;;;;;;5066217;28;20048;-71
2022/05/26 03:06:15;;;;;;;8.18;2.63;;;12.90;99.90;;;;;;5086810;28;20035;-71
2022/05/26 03:08:42;;;;;;;10.60;2.45;;;12.90;99.90;;;;;;5108025;28;20555;-71
2022/05/26 03:11:12;;;;;;;14.02;3.08;;;12.90;99.90;;;;;;5106689;27;20509;-70
2022/05/26 03:13:38;;;;;;;12.38;2.15;;;12.90;99.90;;;;;;5106212;28;20430;-70
2022/05/26 03:16:05;;;;;;;7.40;2.15;;;12.90;99.90;;;;;;5102728;28;20043;-71
2022/05/26 03:18:31;;;;;;;12.23;1.83;;;12.90;99.90;;;;;;5087728;28;20131;-71
2022/05/26 03:20:59;;;;;;;6.35;1.73;;;12.90;99.90;;;;;;5085693;28;20123;-71
2022/05/26 03:23:24;;;;;;;9.85;2.10;;;12.90;99.90;;;;;;5083632;28;20465;-71
2022/05/26 03:25:50;;;;;;;14.55;2.58;;;12.90;99.90;;;;;;5104807;28;20047;-71
2022/05/26 03:28:16;;;;;;;13.00;2.00;;;12.90;99.90;;;;;;5084820;28;20402;-70
2022/05/26 03:30:42;;;;;;;8.05;1.90;;;12.90;99.90;;;;;;5104374;28;20035;-70
2022/05/26 03:33:07;;;;;;;7.88;1.65;;;13.00;99.90;;;;;;5102300;28;20032;-71
2022/05/26 03:41:01;;;;;;;7.55;1.67;;;12.90;99.90;;;;;;5102576;28;20718;-70
2022/05/26 03:43:32;;;;;;;8.68;1.90;;;12.90;99.90;;;;;;5085112;28;20067;-70
2022/05/26 03:45:59;;;;;;;8.50;1.83;;;12.90;99.90;;;;;;5102761;28;20105;-72
2022/05/26 03:48:26;;;;;;;15.32;2.72;;;12.90;99.90;;;;;;5081423;28;20071;-71
2022/05/26 03:50:51;;;;;;;10.32;1.95;;;12.90;99.90;;;;;;5100486;28;20135;-71
2022/05/26 03:53:17;;;;;;;11.55;2.10;;;12.90;99.90;;;;;;5103612;28;20167;-71
2022/05/26 03:55:43;;;;;;;11.75;2.50;;;12.90;99.90;;;;;;5069209;28;20094;-71
2022/05/26 03:58:08;;;;;;;11.43;1.90;;;12.90;99.90;;;;;;5104593;28;20051;-71
2022/05/26 04:00:35;;;;;;;12.95;1.90;;;12.90;99.90;;;;;;5104063;28;20877;-71
2022/05/26 04:03:01;;;;;;;6.85;1.90;;;12.90;99.90;;;;;;5103417;28;20110;-72
2022/05/26 04:05:27;;;;;;;9.30;1.80;;;13.00;99.90;;;;;;5103343;28;20445;-71
2022/05/26 04:07:52;;;;;;;10.48;1.77;;;13.30;99.90;;;;;;5104027;28;20036;-71
2022/05/26 04:10:19;;;;;;;8.93;1.92;;;13.20;99.90;;;;;;5083359;28;20039;-71
2022/05/26 04:12:46;;;;;;;7.20;1.70;;;13.40;99.90;;;;;;5103372;28;20043;-72
2022/05/26 04:15:14;;;;;;;13.82;3.28;;;13.80;99.90;;;;;;5085199;28;20075;-70
2022/05/26 04:17:40;;;;;;;10.23;2.05;;;14.00;99.90;;;;;;5085516;28;20510;-70
2022/05/26 04:20:10;;;;;;;11.43;2.17;;;14.30;99.90;;;;;;5104373;28;20067;-70
2022/05/26 04:22:35;;;;;;;7.15;1.85;;;14.50;99.90;;;;;;5101766;28;20050;-70
2022/05/26 04:25:02;;;;;;;11.45;2.83;;;14.40;99.90;;;;;;5102007;28;20423;-71
2022/05/26 04:27:31;;;;;;;6.80;1.80;;;14.20;99.90;;;;;;5105759;28;20043;-70
2022/05/26 04:29:57;;;;;;;9.18;2.05;;;13.90;99.90;;;;;;5086688;28;20046;-70
2022/05/26 04:32:24;;;;;;;11.18;1.95;;;13.80;99.90;;;;;;5102275;28;20517;-70
2022/05/26 04:34:51;;;;;;;11.35;1.90;;;13.60;99.90;;;;;;5104168;28;20481;-71
2022/05/26 04:37:19;;;;;;;13.23;2.13;;;13.40;99.90;;;;;;5104617;28;20038;-71
2022/05/26 04:39:45;;;;;;;10.80;2.58;;;13.40;99.90;;;;;;5098967;28;20422;-71
2022/05/26 04:42:11;;;;;;;7.72;1.45;;;13.30;99.90;;;;;;5102135;28;20040;-70
2022/05/26 04:44:40;;;;;;;9.50;1.92;;;13.30;99.90;;;;;;5103703;28;20027;-71
2022/05/26 04:47:06;;;;;;;13.02;2.10;;;13.20;99.90;;;;;;5103274;28;20039;-72
2022/05/26 04:49:32;;;;;;;5.10;1.65;;;13.20;99.90;;;;;;5104986;28;20046;-70
2022/05/26 04:51:58;;;;;;;6.57;2.40;;;13.20;99.90;;;;;;5101412;28;20042;-71
2022/05/26 04:54:24;;;;;;;4.22;1.40;;;13.30;99.90;;;;;;5101475;28;20500;-70
2022/05/26 04:56:49;;;;;;;7.47;1.80;;;13.30;99.90;;;;;;5099129;28;20043;-70
2022/05/26 04:59:15;;;;;;;7.53;1.60;;;13.40;99.90;;;;;;5101462;28;20047;-70
2022/05/26 05:01:42;;;;;;;13.93;2.05;;;13.50;99.90;;;;;;5098388;28;20406;-70
2022/05/26 05:04:08;;;;;;;11.82;1.75;;;13.60;99.90;;;;;;5082105;28;20039;-70
2022/05/26 05:06:34;;;;;;;12.07;1.92;;;13.60;99.90;;;;;;5083981;28;20040;-70
2022/05/26 05:09:00;;;;;;;11.57;2.17;;;13.70;99.90;;;;;;5094597;28;20089;-71
2022/05/26 05:11:26;;;;;;;7.63;2.17;;;13.80;99.90;;;;;;5098093;28;20501;-72
2022/05/26 05:13:53;;;;;;;4.68;1.40;;;13.90;99.90;;;;;;5080444;28;20499;-71
2022/05/26 05:16:21;;;;;;;9.25;1.75;;;14.00;99.90;;;;;;5081499;28;20052;-71
2022/05/26 05:18:47;;;;;;;13.85;2.15;;;14.10;99.90;;;;;;5081813;28;20071;-70
2022/05/26 05:21:17;;;;;;;8.45;1.90;;;14.20;99.90;;;;;;5100500;28;20064;-69
2022/05/26 05:23:51;;;;;;;9.27;1.63;;;14.30;99.90;;;;;;5099098;28;20139;-70
2022/05/26 05:26:21;;;;;;;7.72;1.75;;;14.40;99.90;;;;;;5104453;28;20040;-70
2022/05/26 05:28:54;;;;;;;5.50;1.60;;;14.60;99.90;;;;;;5099924;28;20044;-70
2022/05/26 05:31:26;;;;;;;4.60;1.23;;;14.60;99.90;;;;;;5098652;28;20031;-71
2022/05/26 05:33:56;;;;;;;6.20;1.65;;;14.80;99.90;;;;;;5099423;28;20071;-71
2022/05/26 05:36:28;;;;;;;7.88;1.60;;;14.90;99.90;;;;;;5103936;28;20039;-70
2022/05/26 05:38:56;;;;;;;6.70;1.37;;;15.00;99.90;;;;;;5107376;28;20036;-71
2022/05/26 05:41:21;;;;;;;8.20;1.52;;;15.20;99.90;;;;;;5104179;28;20165;-71
2022/05/26 05:43:48;;;;;;;9.32;1.65;;;15.30;99.90;;;;;;5100728;27;20578;-71
2022/05/26 05:46:14;;;;;;;6.55;1.20;;;15.40;99.90;;;;;;5100824;27;20467;-71
2022/05/26 05:48:43;;;;;;;5.90;1.58;;;15.50;99.90;;;;;;5107248;28;20118;-72
2022/05/26 05:51:10;;;;;;;8.52;1.30;;;15.50;99.90;;;;;;5104436;28;20039;-69
2022/05/26 05:53:36;;;;;;;8.68;1.55;;;15.60;99.90;;;;;;5107922;28;20130;-71
2022/05/26 05:56:02;;;;;;;6.10;1.23;;;15.70;99.90;;;;;;5103468;28;20173;-71
2022/05/26 05:58:28;;;;;;;7.00;1.48;;;15.70;99.90;;;;;;5102655;28;20491;-71
2022/05/26 06:00:54;;;;;;;5.55;1.30;;;15.80;99.90;;;;;;5104564;28;20043;-71
2022/05/26 06:03:20;;;;;;;11.38;1.50;;;15.90;99.90;;;;;;5100014;28;20039;-71
2022/05/26 06:05:46;;;;;;;5.28;1.52;;;16.00;99.90;;;;;;5101040;28;20058;-71
2022/05/26 06:08:12;;;;;;;7.30;2.03;;;16.10;99.90;;;;;;5104341;28;20039;-70
2022/05/26 06:10:37;;;;;;;7.57;1.90;;;16.00;99.90;;;;;;5101595;28;20039;-71
2022/05/26 06:13:03;;;;;;;11.68;2.08;;;16.00;99.90;;;;;;5107009;28;20126;-70
2022/05/26 06:15:29;;;;;;;6.47;1.40;;;15.90;99.90;;;;;;5102933;28;20552;-71
2022/05/26 06:17:57;;;;;;;10.65;1.75;;;15.70;99.90;;;;;;5103564;28;20083;-70
2022/05/26 06:20:23;;;;;;;8.38;1.73;;;15.60;99.90;;;;;;5103115;28;20090;-71
2022/05/26 06:22:49;;;;;;;6.43;1.50;;;15.60;99.90;;;;;;5077653;28;20495;-71
2022/05/26 06:25:17;;;;;;;7.35;1.50;;;15.60;99.90;;;;;;5065910;28;20044;-71
2022/05/26 06:30:30;;;;;;;11.55;1.85;;;15.60;99.90;;;;;;5084151;28;20055;-71
2022/05/26 06:38:33;;;;;;;5.20;1.40;;;16.10;99.90;;;;;;5069975;28;20123;-71
2022/05/26 06:42:05;;;;;;;11.43;1.80;;;16.10;99.90;;;;;;5066581;28;20644;-70
2022/05/26 06:43:45;;;;;;;7.93;1.52;;;16.00;99.90;;;;;;5065236;28;20165;-72
2022/05/26 06:46:10;;;;;;;7.65;1.90;;;15.90;99.90;;;;;;5066823;28;20051;-71
2022/05/26 06:48:36;;;;;;;11.23;1.55;;;15.80;99.90;;;;;;5086807;28;20136;-71
2022/05/26 06:51:05;;;;;;;8.70;1.77;;;15.90;99.90;;;;;;5081298;28;20102;-71
2022/05/26 06:53:30;;;;;;;7.03;1.38;;;15.90;99.90;;;;;;5080839;28;20584;-71
2022/05/26 06:55:56;;;;;;;8.50;1.40;;;16.10;99.90;;;;;;5082743;28;20044;-71
2022/05/26 06:58:22;;;;;;;7.57;2.13;;;16.40;99.90;;;;;;5085158;28;20036;-71
2022/05/26 07:00:47;;;;;;;5.88;1.38;;;16.70;99.90;;;;;;5084106;28;20094;-71
2022/05/26 07:03:15;;;;;;;8.38;2.05;;;16.90;99.90;;;;;;5076360;28;20052;-73
2022/05/26 07:05:40;;;;;;;5.43;1.67;;;17.10;99.90;;;;;;5066343;28;20051;-72
2022/05/26 07:08:06;;;;;;;7.07;1.45;;;17.10;99.90;;;;;;5085437;28;20040;-72
2022/05/26 07:10:34;;;;;;;6.70;1.40;;;17.10;99.90;;;;;;5079894;28;20122;-70
2022/05/26 07:13:00;;;;;;;9.45;1.55;;;17.10;99.90;;;;;;5080556;28;20075;-70
2022/05/26 07:15:25;;;;;;;8.48;1.67;;;17.00;99.90;;;;;;5081980;28;20526;-71
2022/05/26 07:17:51;;;;;;;9.15;1.75;;;16.90;99.90;;;;;;5086885;28;20474;-70
2022/05/26 07:20:18;;;;;;;6.35;1.23;;;16.90;99.90;;;;;;5066081;28;20499;-71
2022/05/26 07:22:43;;;;;;;6.88;1.33;;;16.90;99.90;;;;;;5071900;27;20043;-72
2022/05/26 07:25:10;;;;;;;8.73;1.52;;;16.80;99.90;;;;;;5107800;27;20047;-72
2022/05/26 07:27:36;;;;;;;7.63;1.20;;;16.90;99.90;;;;;;5100360;27;20051;-71
2022/05/26 07:30:04;;;;;;;7.60;1.80;;;16.90;99.90;;;;;;5104191;27;20035;-72
2022/05/26 07:32:29;;;;;;;7.72;1.42;;;16.90;99.90;;;;;;5088727;28;20051;-72
2022/05/26 07:34:55;;;;;;;6.72;1.98;;;17.00;99.90;;;;;;5095665;28;20710;-68
2022/05/26 07:42:50;;;;;;;5.15;1.40;;;17.40;99.90;;;;;;5093758;28;20544;-71
2022/05/26 07:45:18;;;;;;;5.72;1.17;;;17.40;99.90;;;;;;5103171;28;20554;-71
2022/05/26 07:47:44;;;;;;;6.05;1.20;;;17.50;99.90;;;;;;5099556;27;20047;-70
2022/05/26 07:50:19;;;;;;;8.77;1.70;;;17.50;99.90;;;;;;5083227;28;20036;-70
2022/05/26 07:52:47;;;;;;;5.78;1.15;;;17.50;99.90;;;;;;5082529;28;20050;-71
2022/05/26 07:55:13;;;;;;;7.88;1.38;;;17.40;99.90;;;;;;5098510;28;20074;-71
2022/05/26 07:57:38;;;;;;;5.78;1.15;;;17.30;99.90;;;;;;5063085;28;20043;-71
2022/05/26 08:00:05;;;;;;;6.88;1.40;;;17.20;99.90;;;;;;5094727;28;20040;-71
2022/05/26 08:02:31;;;;;;;9.05;1.60;;;17.10;99.90;;;;;;5099305;28;20058;-71
2022/05/26 08:04:56;;;;;;;7.45;1.30;;;17.10;99.90;;;;;;5101755;28;20515;-71
2022/05/26 08:07:22;;;;;;;5.22;1.50;;;17.00;99.90;;;;;;5097294;28;20047;-71
2022/05/26 08:09:48;;;;;;;7.72;1.65;;;17.00;99.90;;;;;;5079248;28;20074;-71
2022/05/26 08:12:14;;;;;;;7.00;1.17;;;17.00;99.90;;;;;;5099637;28;20067;-71
2022/05/26 08:14:41;;;;;;;5.65;1.30;;;17.00;99.90;;;;;;5104122;28;20548;-71
2022/05/26 08:17:07;;;;;;;6.05;1.42;;;17.00;99.90;;;;;;5100164;28;20039;-71
2022/05/26 08:19:33;;;;;;;8.75;1.73;;;17.00;99.90;;;;;;5103474;28;20356;-72
2022/05/26 08:21:59;;;;;;;7.13;1.67;;;17.10;99.90;;;;;;5099385;28;20150;-73
2022/05/26 08:24:25;;;;;;;7.75;1.25;;;17.20;99.90;;;;;;5085177;28;20558;-72
2022/05/26 08:26:52;;;;;;;5.80;1.55;;;17.30;99.90;;;;;;5085852;28;20508;-74
2022/05/26 08:29:18;;;;;;;4.10;1.35;;;17.50;99.90;;;;;;5103265;28;20163;-74
2022/05/26 08:31:44;;;;;;;2.90;1.00;;;17.70;99.90;;;;;;5102546;28;20036;-74
2022/05/26 08:34:10;;;;;;;7.55;1.10;;;17.90;99.90;;;;;;5100285;28;20043;-74
2022/05/26 08:36:36;;;;;;;5.75;1.45;;;18.10;99.90;;;;;;5082919;28;20410;-72
2022/05/26 08:39:03;;;;;;;7.15;1.45;;;18.20;99.90;;;;;;5081567;28;20048;-71
2022/05/26 08:41:36;;;;;;;2.53;1.10;;;18.40;99.90;;;;;;5101144;28;20059;-72
2022/05/26 08:44:36;;;;;;;5.55;1.42;;;18.50;99.90;;;;;;5082169;27;20043;-73
2022/05/26 08:47:10;;;;;;;6.18;1.13;;;18.40;99.90;;;;;;5075135;28;20664;-74
2022/05/26 08:49:42;;;;;;;8.60;1.80;;;18.50;99.90;;;;;;5102115;28;20028;-74
2022/05/26 08:52:11;;;;;;;4.40;1.00;;;18.80;99.90;;;;;;5078352;28;20469;-76
2022/05/26 08:54:43;;;;;;;7.25;1.27;;;19.00;99.90;;;;;;5097987;28;20107;-78
2022/05/26 08:57:13;;;;;;;4.80;1.52;;;19.00;99.90;;;;;;5078758;28;20118;-78
2022/05/26 08:59:44;;;;;;;7.75;1.50;;;18.90;99.90;;;;;;5098646;28;20081;-79
2022/05/26 09:02:34;;;;;;;4.20;1.60;;;19.10;99.90;;;;;;5101149;28;20040;-78
2022/05/26 09:05:06;;;;;;;3.92;0.98;;;19.30;99.90;;;;;;5071466;28;20055;-78
2022/05/26 09:13:26;;;;;;;5.40;1.65;;;19.70;99.90;;;;;;5081807;28;20048;-78
2022/05/26 09:15:52;;;;;;;4.90;1.05;;;19.50;99.90;;;;;;5103096;27;20081;-78
2022/05/26 09:18:20;;;;;;;5.70;1.73;;;19.70;99.90;;;;;;5098784;28;20040;-78
2022/05/26 09:20:49;;;;;;;10.35;1.60;;;19.80;99.90;;;;;;5098673;28;20387;-76
2022/05/26 09:23:27;;;;;;;6.78;1.35;;;19.90;99.90;;;;;;5103326;28;20048;-76
2022/05/26 09:26:01;;;;;;;9.02;1.30;;;19.90;99.90;;;;;;5101356;28;20610;-76
2022/05/26 09:28:32;;;;;;;4.60;1.10;;;19.90;99.90;;;;;;5104109;28;20043;-79
2022/05/26 09:31:17;;;;;;;5.28;2.17;;;20.00;99.90;;;;;;5105872;28;20121;-78
2022/05/26 09:33:43;;;;;;;5.00;1.00;;;20.20;99.90;;;;;;5101519;28;20081;-77
2022/05/26 09:36:26;;;;;;;5.70;1.60;;;20.20;99.90;;;;;;5107059;28;20051;-78
2022/05/26 09:38:52;;;;;;;3.60;1.08;;;20.20;99.90;;;;;;5101747;28;20147;-79
2022/05/26 09:41:18;;;;;;;6.80;1.10;;;20.20;99.90;;;;;;5077336;28;20043;-79
2022/05/26 09:43:57;;;;;;;6.70;1.42;;;20.00;99.90;;;;;;5103835;28;20552;-79
2022/05/26 09:46:26;;;;;;;6.07;1.38;;;19.90;99.90;;;;;;5084511;28;20036;-78
2022/05/26 09:48:57;;;;;;;7.20;1.60;;;19.70;99.90;;;;;;5085397;28;20127;-78
2022/05/26 09:51:27;;;;;;;7.38;1.67;;;19.50;99.90;;;;;;5090597;28;20046;-78
2022/05/26 09:53:55;;;;;;;7.05;1.67;;;19.30;99.90;;;;;;5079495;28;20052;-75
2022/05/26 09:56:47;;;;;;;6.35;1.70;;;19.10;99.90;;;;;;5083723;28;20044;-76
2022/05/26 09:59:31;;;;;;;8.15;1.48;;;18.90;99.90;;;;;;5105517;27;20052;-75
2022/05/26 10:02:06;;;;;;;7.35;1.90;;;19.00;99.90;;;;;;5100928;27;20044;-75
2022/05/26 10:05:04;;;;;;;9.68;2.17;;;19.10;99.90;;;;;;5104903;27;20101;-76
2022/05/26 10:07:50;;;;;;;8.18;1.95;;;19.10;99.90;;;;;;5101042;28;20035;-75
2022/05/26 10:10:28;;;;;;;12.35;2.10;;;19.30;99.90;;;;;;5081073;28;20044;-76
2022/05/26 10:13:38;;;;;;;7.20;2.25;;;19.40;99.90;;;;;;5097476;28;20271;-73
2022/05/26 10:16:22;;;;;;;8.52;1.70;;;19.70;99.90;;;;;;5074744;28;20112;-73
2022/05/26 10:19:40;;;;;;;8.60;1.92;;;19.50;99.90;;;;;;5102772;28;20039;-71
2022/05/26 10:22:24;;;;;;;8.50;1.52;;;19.60;99.90;;;;;;5028204;28;20051;-73
2022/05/26 10:24:58;;;;;;;9.20;1.90;;;19.40;99.90;;;;;;5101876;28;20052;-74
2022/05/26 10:27:41;;;;;;;10.52;1.75;;;19.20;99.90;;;;;;5098607;28;20040;-75
2022/05/26 10:30:19;;;;;;;5.95;1.50;;;19.10;99.90;;;;;;5102260;28;20046;-75
2022/05/26 10:33:30;;;;;;;9.45;1.88;;;19.20;99.90;;;;;;5066503;28;20052;-73
2022/05/26 10:36:16;;;;;;;5.40;1.65;;;19.60;99.90;;;;;;5080914;28;20039;-72
2022/05/26 10:39:05;;;;;;;10.85;2.03;;;19.70;99.90;;;;;;5048776;28;20082;-71
2022/05/26 10:41:47;;;;;;;6.88;1.92;;;19.80;99.90;;;;;;5102620;28;20527;-74
2022/05/26 10:44:28;;;;;;;8.37;1.90;;;19.90;99.90;;;;;;5105384;28;20043;-72
2022/05/26 10:47:03;;;;;;;6.90;1.98;;;19.70;99.90;;;;;;5104406;28;20071;-66
2022/05/26 10:49:36;;;;;;;4.88;1.55;;;19.70;99.90;;;;;;5104390;28;20055;-68
2022/05/26 10:52:26;;;;;;;8.57;1.63;;;19.70;99.90;;;;;;5101320;28;20130;-73
2022/05/26 10:55:04;;;;;;;9.95;2.25;;;19.70;99.90;;;;;;5101172;28;20280;-72
2022/05/26 10:57:55;;;;;;;15.20;2.20;;;19.80;99.90;;;;;;5104588;28;20051;-71
2022/05/26 11:00:27;;;;;;;6.22;1.77;;;20.00;99.90;;;;;;5103437;28;20051;-71
2022/05/26 11:03:13;;;;;;;8.57;1.98;;;20.00;99.90;;;;;;5100095;28;20494;-71
2022/05/26 11:05:52;;;;;;;7.80;2.10;;;20.10;99.90;;;;;;5100982;28;20040;-73
2022/05/26 11:08:36;;;;;;;8.75;2.17;;;20.40;99.90;;;;;;5101914;28;20066;-71
2022/05/26 11:11:14;;;;;;;12.05;2.10;;;20.40;99.90;;;;;;5087510;28;20039;-71
2022/05/26 11:13:58;;;;;;;8.25;1.77;;;20.40;99.90;;;;;;5082967;28;20043;-73
2022/05/26 11:19:46;;;;;;;6.28;2.17;;;20.00;99.90;;;;;;5083779;28;20039;-71
2022/05/26 11:22:14;;;;;;;8.50;2.33;;;19.90;99.90;;;;;;5106450;28;20048;-72
2022/05/26 11:24:40;;;;;;;5.80;1.63;;;19.90;99.90;;;;;;5089553;28;20131;-72
2022/05/26 11:27:12;;;;;;;7.95;1.83;;;20.00;99.90;;;;;;5102516;28;20123;-71
2022/05/26 11:29:45;;;;;;;10.10;2.05;;;20.00;99.90;;;;;;5109251;28;20044;-73
2022/05/26 11:38:06;;;;;;;7.05;1.50;;;20.40;99.90;;;;;;5088372;28;20193;-73
2022/05/26 11:40:43;;;;;;;8.20;1.75;;;20.50;99.90;;;;;;5100748;28;20036;-72
2022/05/26 11:43:09;;;;;;;9.73;2.60;;;20.50;99.90;;;;;;5088230;28;20043;-73
2022/05/26 11:45:48;;;;;;;7.68;1.58;;;20.50;99.90;;;;;;5109827;28;20031;-73
2022/05/26 11:48:32;;;;;;;7.00;1.73;;;20.40;99.90;;;;;;5105134;28;20043;-73
2022/05/26 11:51:22;;;;;;;7.40;2.00;;;20.40;99.90;;;;;;5104800;28;20166;-73
2022/05/26 11:53:48;;;;;;;11.52;2.28;;;20.30;99.90;;;;;;5079652;28;20502;-72
2022/05/26 11:56:30;;;;;;;6.53;2.03;;;20.20;99.90;;;;;;5081127;28;20046;-74
2022/05/26 11:59:32;;;;;;;6.68;1.70;;;20.10;99.90;;;;;;5105973;28;20051;-73
2022/05/26 12:02:00;;;;;;;7.80;2.13;;;19.80;99.90;;;;;;5084911;28;20346;-73
2022/05/26 12:04:31;;;;;;;5.07;2.00;;;19.70;99.90;;;;;;5087891;28;20048;-72
2022/05/26 12:07:03;;;;;;;9.38;2.00;;;19.70;99.90;;;;;;5089699;28;20054;-73
2022/05/26 12:09:31;;;;;;;11.73;2.38;;;19.60;99.90;;;;;;5087136;28;20508;-73
2022/05/26 12:12:27;;;;;;;8.88;1.98;;;19.50;99.90;;;;;;5101517;28;20050;-73
2022/05/26 12:14:53;;;;;;;8.43;3.15;;;19.40;99.90;;;;;;5086316;28;20409;-73
2022/05/26 12:17:33;;;;;;;9.68;2.47;;;19.40;99.90;;;;;;5107186;28;20043;-72
2022/05/26 12:20:11;;;;;;;7.05;1.83;;;19.30;99.90;;;;;;5102806;28;20047;-72
2022/05/26 12:23:00;;;;;;;11.63;2.40;;;19.30;99.90;;;;;;5081225;28;20518;-73
2022/05/26 12:25:29;;;;;;;7.95;2.08;;;19.40;99.90;;;;;;5102996;28;20051;-73
2022/05/26 12:27:56;;;;;;;9.23;1.92;;;19.40;99.90;;;;;;5104230;28;20036;-73
2022/05/26 12:30:37;;;;;;;8.63;2.45;;;19.40;99.90;;;;;;5104376;28;20039;-73
2022/05/26 12:33:34;;;;;;;8.63;1.98;;;19.30;99.90;;;;;;5105629;28;20039;-73
2022/05/26 12:36:18;;;;;;;8.40;2.05;;;19.40;99.90;;;;;;5083394;28;20538;-72
2022/05/26 12:38:44;;;;;;;6.50;2.28;;;19.60;99.90;;;;;;5099339;28;20040;-73
2022/05/26 12:41:31;;;;;;;7.25;1.70;;;19.50;99.90;;;;;;5105870;28;20143;-73
2022/05/26 12:44:14;;;;;;;8.38;1.80;;;19.30;99.90;;;;;;5105730;28;20597;-73
2022/05/26 12:46:59;;;;;;;8.48;2.22;;;19.20;99.90;;;;;;5101096;28;20387;-72
2022/05/26 12:49:35;;;;;;;5.32;1.90;;;19.10;99.90;;;;;;5089397;28;20096;-73
2022/05/26 12:52:35;;;;;;;9.65;2.65;;;19.10;99.90;;;;;;5084901;28;20039;-73
2022/05/26 12:55:24;;;;;;;13.32;2.40;;;19.10;99.90;;;;;;5097646;28;20175;-73
2022/05/26 12:58:05;;;;;;;8.02;2.35;;;19.10;99.90;;;;;;5104775;28;20062;-72
2022/05/26 13:00:42;;;;;;;15.13;3.00;;;19.20;99.90;;;;;;5085610;28;20054;-72
2022/05/26 13:03:32;;;;;;;7.88;2.47;;;19.30;99.90;;;;;;5089115;28;20290;-72
2022/05/26 13:06:29;;;;;;;10.80;2.70;;;19.20;99.90;;;;;;5087309;28;20070;-72
2022/05/26 13:09:04;;;;;;;7.32;2.22;;;19.10;99.90;;;;;;5085465;28;20038;-72
2022/05/26 13:11:58;;;;;;;11.65;3.53;;;18.90;99.90;;;;;;5084843;28;20051;-72
2022/05/26 13:14:44;;;;;;;13.10;3.33;;;18.90;99.90;;;;;;5081921;28;20043;-73
2022/05/26 13:17:18;;;;;;;10.63;2.95;;;18.70;99.90;;;;;;5106329;28;20043;-73
2022/05/26 13:19:59;;;;;;;14.57;3.25;;;18.80;99.90;;;;;;5078971;28;20032;-72
2022/05/26 13:22:25;;;;;;;11.95;3.95;;;18.70;99.90;;;;;;5076614;28;20040;-74
2022/05/26 13:25:13;;;;;;;8.35;2.05;;;18.70;99.90;;;;;;5103501;28;20039;-73
2022/05/26 13:27:59;;;;;;;6.50;2.00;;;18.70;99.90;;;;;;5078784;28;20039;-72
2022/05/26 13:33:22;;;;;;;8.35;2.33;;;18.40;99.90;;;;;;5085722;28;20039;-72
2022/05/26 13:35:59;;;;;;;9.90;2.45;;;18.50;99.90;;;;;;5087983;28;20028;-73
2022/05/26 13:38:37;;;;;;;9.95;2.45;;;18.50;99.90;;;;;;5100108;28;20048;-73
2022/05/26 13:41:09;;;;;;;12.18;3.05;;;18.50;99.90;;;;;;5105186;28;20046;-73
2022/05/26 13:43:38;;;;;;;11.15;2.65;;;18.50;99.90;;;;;;5100925;28;20039;-72
2022/05/26 13:46:06;;;;;;;13.55;2.85;;;18.40;99.90;;;;;;5099223;28;20047;-72
2022/05/26 13:48:42;;;;;;;17.17;3.40;;;18.40;99.90;;;;;;5101970;28;20040;-72
2022/05/26 13:51:20;;;;;;;9.00;2.70;;;18.30;99.90;;;;;;5101035;28;20089;-72
2022/05/26 13:53:48;;;;;;;12.80;3.55;;;18.20;99.90;;;;;;5074617;28;20075;-73